Time;durP1;ratioP1;P1;durP2;ratioP2;P2;SDS_P1;SDS_P2;PMS_P1;PMS_P2;Temp;Humidity;BMP_temperature;BMP_pressure;BME280_temperature;BME280_humidity;BME280_pressure;Samples;Min_cycle;Max_cycle;Signal;HPM_P1;HPM_P2
2022/10/20 00:00:54;;;;;;;6.68;5.00;;;;;;;;;;6118629;23;20171;-76
2022/10/20 00:03:20;;;;;;;5.78;5.15;;;;;;;;;;6117329;23;20010;-76
2022/10/20 00:05:47;;;;;;;8.70;4.80;;;;;;;;;;6119492;23;20450;-76
2022/10/20 00:08:13;;;;;;;5.53;4.57;;;;;;;;;;6119258;23;19998;-76
2022/10/20 00:10:39;;;;;;;7.10;4.70;;;;;;;;;;6119064;23;20006;-76
2022/10/20 00:13:05;;;;;;;7.80;4.80;;;;;;;;;;6117626;23;20137;-76
2022/10/20 00:15:32;;;;;;;6.68;4.90;;;;;;;;;;6118598;23;20002;-76
2022/10/20 00:17:58;;;;;;;5.88;4.43;;;;;;;;;;6119754;23;20068;-76
2022/10/20 00:20:24;;;;;;;5.93;4.97;;;;;;;;;;6119837;23;20002;-76
2022/10/20 00:22:50;;;;;;;5.55;4.63;;;;;;;;;;6117339;23;20013;-75
2022/10/20 00:25:17;;;;;;;7.88;4.65;;;;;;;;;;6119037;23;20057;-76
2022/10/20 00:27:43;;;;;;;6.05;4.40;;;;;;;;;;6119180;23;20006;-76
2022/10/20 00:30:09;;;;;;;7.32;4.57;;;;;;;;;;6119288;23;20002;-76
2022/10/20 00:32:35;;;;;;;5.20;4.57;;;;;;;;;;6116879;23;20088;-76
2022/10/20 00:35:01;;;;;;;5.18;4.50;;;;;;;;;;6118643;23;20077;-75
2022/10/20 00:37:27;;;;;;;5.05;4.25;;;;;;;;;;6119241;23;20005;-76
2022/10/20 00:39:54;;;;;;;7.03;4.70;;;;;;;;;;6119341;23;20006;-76
2022/10/20 00:42:20;;;;;;;5.80;4.32;;;;;;;;;;6119152;23;20081;-75
2022/10/20 00:44:49;;;;;;;5.75;4.85;;;;;;;;;;6090645;23;20367;-76
2022/10/20 00:47:34;;;;;;;5.40;4.47;;;;;;;;;;6118985;23;20012;-76
2022/10/20 00:50:04;;;;;;;5.35;4.55;;;;;;;;;;6119311;23;20448;-76
2022/10/20 00:52:30;;;;;;;6.97;4.40;;;;;;;;;;6119231;23;20390;-76
2022/10/20 00:54:58;;;;;;;10.30;4.97;;;;;;;;;;6090192;23;20308;-75
2022/10/20 00:57:24;;;;;;;6.50;4.45;;;;;;;;;;6115497;23;20013;-76
2022/10/20 00:59:50;;;;;;;5.03;4.30;;;;;;;;;;6113365;23;20320;-75
2022/10/20 01:02:16;;;;;;;5.10;4.13;;;;;;;;;;6088083;23;20089;-75
2022/10/20 01:04:43;;;;;;;5.80;4.38;;;;;;;;;;6112900;23;20005;-75
2022/10/20 01:07:09;;;;;;;6.28;4.28;;;;;;;;;;6113292;23;20069;-75
2022/10/20 01:09:37;;;;;;;5.45;4.13;;;;;;;;;;6110719;23;20002;-75
2022/10/20 01:12:07;;;;;;;4.25;3.78;;;;;;;;;;6112175;23;20010;-75
2022/10/20 01:14:33;;;;;;;4.82;3.55;;;;;;;;;;6112819;23;20005;-75
2022/10/20 01:17:05;;;;;;;6.03;4.10;;;;;;;;;;6111317;23;20085;-75
2022/10/20 01:19:51;;;;;;;6.03;4.20;;;;;;;;;;6112453;23;20462;-75
2022/10/20 01:22:30;;;;;;;5.18;3.53;;;;;;;;;;6053971;23;19998;-75
2022/10/20 01:25:15;;;;;;;4.70;3.90;;;;;;;;;;6109064;23;20020;-75
2022/10/20 01:27:57;;;;;;;4.72;3.97;;;;;;;;;;6113375;23;20010;-75
2022/10/20 01:30:23;;;;;;;6.65;4.00;;;;;;;;;;6087959;23;20313;-75
2022/10/20 01:32:52;;;;;;;4.95;3.67;;;;;;;;;;6111013;23;20097;-75
2022/10/20 01:35:25;;;;;;;8.52;3.50;;;;;;;;;;6112856;23;19998;-75
2022/10/20 01:37:53;;;;;;;4.07;3.67;;;;;;;;;;6113204;23;20010;-75
2022/10/20 01:40:26;;;;;;;7.38;4.40;;;;;;;;;;6087258;23;20497;-75
2022/10/20 01:42:53;;;;;;;8.07;3.67;;;;;;;;;;6112681;23;20001;-74
2022/10/20 01:45:21;;;;;;;4.82;3.55;;;;;;;;;;6112480;23;20064;-75
2022/10/20 01:47:48;;;;;;;5.35;3.72;;;;;;;;;;6111332;23;20012;-75
2022/10/20 01:50:15;;;;;;;4.90;3.70;;;;;;;;;;6113652;23;20010;-76
2022/10/20 01:52:42;;;;;;;4.75;3.70;;;;;;;;;;6113063;23;20010;-75
2022/10/20 01:55:12;;;;;;;4.00;3.40;;;;;;;;;;6112236;23;20009;-76
2022/10/20 01:57:49;;;;;;;5.25;3.65;;;;;;;;;;6110501;23;20020;-76
2022/10/20 02:00:16;;;;;;;5.43;3.42;;;;;;;;;;6114993;23;20491;-75
2022/10/20 02:03:01;;;;;;;5.03;3.55;;;;;;;;;;6114950;23;20077;-75
2022/10/20 02:05:36;;;;;;;5.25;4.35;;;;;;;;;;6113158;23;20029;-75
2022/10/20 02:08:07;;;;;;;5.03;3.70;;;;;;;;;;6114215;23;20103;-74
2022/10/20 02:10:38;;;;;;;5.35;3.70;;;;;;;;;;6113748;23;20009;-75
2022/10/20 02:13:06;;;;;;;5.57;3.40;;;;;;;;;;6115143;23;20053;-75
2022/10/20 02:15:36;;;;;;;5.65;3.72;;;;;;;;;;6114258;23;19997;-75
2022/10/20 02:18:05;;;;;;;3.55;3.15;;;;;;;;;;6114656;23;20077;-75
2022/10/20 02:20:32;;;;;;;4.72;3.40;;;;;;;;;;6112658;23;20025;-75
2022/10/20 02:22:59;;;;;;;6.18;3.58;;;;;;;;;;6112200;23;20006;-75
2022/10/20 02:25:26;;;;;;;5.03;3.65;;;;;;;;;;6113876;23;20013;-75
2022/10/20 02:27:53;;;;;;;4.20;3.42;;;;;;;;;;6115189;23;20005;-75
2022/10/20 02:30:19;;;;;;;4.95;3.90;;;;;;;;;;6113512;23;20165;-76
2022/10/20 02:32:48;;;;;;;4.65;3.97;;;;;;;;;;6114464;23;20022;-75
2022/10/20 02:35:16;;;;;;;5.85;4.07;;;;;;;;;;6088004;23;20010;-75
2022/10/20 02:37:43;;;;;;;4.03;3.60;;;;;;;;;;6114379;23;20005;-75
2022/10/20 02:40:09;;;;;;;4.82;3.90;;;;;;;;;;6114419;23;20073;-76
2022/10/20 02:42:36;;;;;;;7.05;3.70;;;;;;;;;;6112403;23;20006;-76
2022/10/20 02:45:02;;;;;;;6.50;4.10;;;;;;;;;;6113867;23;20340;-75
2022/10/20 02:47:29;;;;;;;6.65;3.30;;;;;;;;;;6114408;23;20002;-76
2022/10/20 02:49:55;;;;;;;5.45;3.88;;;;;;;;;;6114748;23;20792;-76
2022/10/20 02:52:21;;;;;;;4.50;3.72;;;;;;;;;;6115014;23;20443;-75
2022/10/20 02:54:47;;;;;;;4.40;3.63;;;;;;;;;;6113258;23;20075;-75
2022/10/20 02:57:13;;;;;;;5.05;3.75;;;;;;;;;;6112570;23;20028;-76
2022/10/20 02:59:39;;;;;;;5.05;4.18;;;;;;;;;;6114305;23;20375;-75
2022/10/20 03:02:05;;;;;;;4.68;3.80;;;;;;;;;;6114133;23;20009;-75
2022/10/20 03:04:32;;;;;;;4.30;3.90;;;;;;;;;;6112292;23;20012;-75
2022/10/20 03:06:58;;;;;;;6.75;3.88;;;;;;;;;;6113775;23;20064;-76
2022/10/20 03:09:24;;;;;;;6.45;3.83;;;;;;;;;;6114587;23;20141;-75
2022/10/20 03:11:50;;;;;;;8.93;4.00;;;;;;;;;;6115335;23;20097;-75
2022/10/20 03:14:16;;;;;;;4.93;4.00;;;;;;;;;;6117163;23;20007;-76
2022/10/20 03:16:43;;;;;;;5.45;3.80;;;;;;;;;;6114817;23;20009;-75
2022/10/20 03:19:09;;;;;;;6.15;4.13;;;;;;;;;;6088414;23;20002;-75
2022/10/20 03:21:35;;;;;;;5.78;3.92;;;;;;;;;;6113786;23;20077;-75
2022/10/20 03:24:01;;;;;;;6.45;3.83;;;;;;;;;;6113823;23;20081;-75
2022/10/20 03:26:27;;;;;;;4.47;3.88;;;;;;;;;;6111304;23;20002;-75
2022/10/20 03:28:53;;;;;;;4.20;3.53;;;;;;;;;;6113662;23;20010;-75
2022/10/20 03:31:19;;;;;;;7.88;4.10;;;;;;;;;;6110916;23;20571;-75
2022/10/20 03:33:46;;;;;;;4.00;3.60;;;;;;;;;;6084435;23;20635;-76
2022/10/20 03:36:12;;;;;;;4.53;3.83;;;;;;;;;;6111125;23;20002;-75
2022/10/20 03:38:40;;;;;;;4.45;3.53;;;;;;;;;;6109533;23;20085;-76
2022/10/20 03:41:06;;;;;;;6.03;3.70;;;;;;;;;;6110852;23;20002;-75
2022/10/20 03:43:33;;;;;;;4.10;3.60;;;;;;;;;;6108534;23;20324;-75
2022/10/20 03:46:03;;;;;;;5.50;4.25;;;;;;;;;;6110694;23;20006;-75
2022/10/20 03:48:30;;;;;;;4.60;3.85;;;;;;;;;;6110965;23;20494;-75
2022/10/20 03:50:56;;;;;;;5.43;4.00;;;;;;;;;;6110854;23;20053;-75
2022/10/20 03:53:22;;;;;;;4.70;4.00;;;;;;;;;;6109222;23;20009;-75
2022/10/20 03:55:48;;;;;;;6.88;3.70;;;;;;;;;;6110316;23;20006;-75
2022/10/20 03:58:14;;;;;;;6.35;3.70;;;;;;;;;;6111042;23;20098;-76
2022/10/20 04:00:40;;;;;;;4.00;3.60;;;;;;;;;;6110969;23;20016;-76
2022/10/20 04:03:07;;;;;;;4.65;3.40;;;;;;;;;;6109392;23;20074;-76
2022/10/20 04:05:33;;;;;;;3.90;3.17;;;;;;;;;;6110273;23;20010;-75
2022/10/20 04:07:59;;;;;;;4.38;3.47;;;;;;;;;;6110222;23;20006;-75
2022/10/20 04:10:25;;;;;;;4.80;3.60;;;;;;;;;;6110512;23;20355;-75
2022/10/20 04:12:51;;;;;;;5.32;4.43;;;;;;;;;;6110281;23;20473;-75
2022/10/20 04:15:18;;;;;;;5.22;4.07;;;;;;;;;;6108846;23;20002;-75
2022/10/20 04:17:44;;;;;;;4.85;3.80;;;;;;;;;;6110475;23;20025;-75
2022/10/20 04:20:10;;;;;;;6.45;3.88;;;;;;;;;;6110994;23;20112;-75
2022/10/20 04:22:37;;;;;;;5.00;4.50;;;;;;;;;;6110393;23;19998;-75
2022/10/20 04:25:03;;;;;;;4.63;3.92;;;;;;;;;;6110283;23;20036;-75
2022/10/20 04:27:29;;;;;;;6.15;3.83;;;;;;;;;;6111023;23;20013;-75
2022/10/20 04:29:56;;;;;;;5.25;3.90;;;;;;;;;;6108431;23;20113;-75
2022/10/20 04:32:22;;;;;;;4.35;3.90;;;;;;;;;;6110690;23;20020;-75
2022/10/20 04:34:48;;;;;;;8.35;3.88;;;;;;;;;;6110550;23;20002;-75
2022/10/20 04:37:14;;;;;;;5.35;4.72;;;;;;;;;;6110077;23;20029;-75
2022/10/20 04:39:40;;;;;;;4.68;3.30;;;;;;;;;;6108744;23;20374;-75
2022/10/20 04:42:07;;;;;;;4.38;3.85;;;;;;;;;;6107763;23;20032;-75
2022/10/20 04:44:33;;;;;;;6.40;3.80;;;;;;;;;;6111245;23;20005;-75
2022/10/20 04:46:59;;;;;;;6.30;3.83;;;;;;;;;;6110253;23;20041;-75
2022/10/20 04:49:25;;;;;;;4.47;3.63;;;;;;;;;;6109872;23;20006;-76
2022/10/20 04:51:51;;;;;;;5.10;3.55;;;;;;;;;;6110882;23;20022;-76
2022/10/20 04:54:18;;;;;;;4.72;4.00;;;;;;;;;;6110080;23;20086;-75
2022/10/20 04:56:44;;;;;;;4.75;3.97;;;;;;;;;;6112875;23;20006;-76
2022/10/20 04:59:10;;;;;;;7.13;4.30;;;;;;;;;;6113035;23;20793;-75
2022/10/20 05:01:36;;;;;;;4.63;3.88;;;;;;;;;;6111758;23;20002;-75
2022/10/20 05:04:02;;;;;;;4.78;3.80;;;;;;;;;;6112879;23;20002;-75
2022/10/20 05:06:30;;;;;;;6.78;4.00;;;;;;;;;;6112519;23;20006;-75
2022/10/20 05:08:58;;;;;;;5.85;4.05;;;;;;;;;;6112328;23;20032;-74
2022/10/20 05:11:25;;;;;;;4.28;3.78;;;;;;;;;;6111648;23;20105;-76
2022/10/20 05:13:52;;;;;;;6.22;3.70;;;;;;;;;;6112641;23;20013;-76
2022/10/20 05:16:18;;;;;;;5.65;3.65;;;;;;;;;;6113172;23;20147;-75
2022/10/20 05:18:45;;;;;;;5.00;4.15;;;;;;;;;;6113139;23;20171;-75
2022/10/20 05:21:18;;;;;;;5.95;4.20;;;;;;;;;;6086574;23;20456;-75
2022/10/20 05:23:45;;;;;;;6.22;4.18;;;;;;;;;;6110816;23;20009;-76
2022/10/20 05:26:12;;;;;;;4.85;4.05;;;;;;;;;;6086172;23;20013;-76
2022/10/20 05:28:39;;;;;;;7.40;3.78;;;;;;;;;;6113090;23;20006;-75
2022/10/20 05:31:06;;;;;;;3.53;3.22;;;;;;;;;;6112529;23;20001;-75
2022/10/20 05:33:33;;;;;;;7.25;3.80;;;;;;;;;;6112360;23;20442;-75
2022/10/20 05:35:59;;;;;;;4.63;3.38;;;;;;;;;;6108049;23;20002;-75
2022/10/20 05:38:26;;;;;;;6.68;3.70;;;;;;;;;;6112206;23;20077;-75
2022/10/20 05:40:52;;;;;;;4.35;3.30;;;;;;;;;;6110310;23;20022;-75
2022/10/20 05:43:18;;;;;;;4.55;3.78;;;;;;;;;;6110568;23;20077;-75
2022/10/20 05:45:44;;;;;;;5.18;3.90;;;;;;;;;;6111359;23;20013;-76
2022/10/20 05:48:10;;;;;;;5.80;3.85;;;;;;;;;;6108661;23;20004;-75
2022/10/20 05:50:37;;;;;;;5.85;3.78;;;;;;;;;;6112524;23;20054;-76
2022/10/20 05:53:03;;;;;;;7.68;4.43;;;;;;;;;;6112606;23;20014;-76
2022/10/20 05:55:29;;;;;;;4.57;3.92;;;;;;;;;;6112228;23;20056;-75
2022/10/20 05:57:55;;;;;;;8.00;4.00;;;;;;;;;;6113220;23;20446;-76
2022/10/20 06:00:29;;;;;;;6.22;3.53;;;;;;;;;;6112690;23;20006;-75
2022/10/20 06:02:55;;;;;;;6.85;4.15;;;;;;;;;;6111960;23;20013;-75
2022/10/20 06:05:21;;;;;;;5.55;3.92;;;;;;;;;;6113351;23;20006;-75
2022/10/20 06:07:48;;;;;;;8.00;4.28;;;;;;;;;;6112645;23;20014;-75
2022/10/20 06:10:14;;;;;;;4.80;4.30;;;;;;;;;;6113040;23;20085;-75
2022/10/20 06:12:40;;;;;;;8.00;5.18;;;;;;;;;;6112094;23;20022;-76
2022/10/20 06:15:06;;;;;;;10.85;5.40;;;;;;;;;;6113021;23;20077;-75
2022/10/20 06:17:33;;;;;;;8.20;5.78;;;;;;;;;;6112542;23;20641;-75
2022/10/20 06:19:59;;;;;;;12.35;5.82;;;;;;;;;;6110968;23;20009;-75
2022/10/20 06:22:25;;;;;;;17.67;6.10;;;;;;;;;;6112173;23;20029;-76
2022/10/20 06:24:51;;;;;;;14.07;5.65;;;;;;;;;;6112393;23;20002;-76
2022/10/20 06:27:18;;;;;;;8.95;5.15;;;;;;;;;;6112162;23;20090;-75
2022/10/20 06:29:44;;;;;;;7.65;5.38;;;;;;;;;;6110275;23;20434;-76
2022/10/20 06:32:10;;;;;;;7.45;4.97;;;;;;;;;;6111967;23;20014;-75
2022/10/20 06:34:36;;;;;;;9.98;6.40;;;;;;;;;;6111946;23;20002;-76
2022/10/20 06:37:02;;;;;;;13.68;6.05;;;;;;;;;;6112645;23;20168;-76
2022/10/20 06:39:29;;;;;;;13.07;6.28;;;;;;;;;;6111002;23;20009;-76
2022/10/20 06:41:55;;;;;;;15.38;7.10;;;;;;;;;;6113060;23;20009;-75
2022/10/20 06:44:22;;;;;;;13.48;6.00;;;;;;;;;;6086352;23;20084;-75
2022/10/20 06:46:51;;;;;;;10.57;6.43;;;;;;;;;;6113078;23;20002;-76
2022/10/20 06:49:17;;;;;;;11.00;6.75;;;;;;;;;;6112209;23;20009;-76
2022/10/20 06:51:43;;;;;;;9.85;6.88;;;;;;;;;;6114292;23;20037;-76
2022/10/20 06:54:10;;;;;;;5.93;4.95;;;;;;;;;;6109785;23;20060;-76
2022/10/20 06:56:36;;;;;;;7.22;5.47;;;;;;;;;;6110785;23;20002;-75
2022/10/20 06:59:03;;;;;;;7.88;5.28;;;;;;;;;;6112056;23;20070;-75
2022/10/20 07:01:31;;;;;;;5.72;4.53;;;;;;;;;;6114419;23;20006;-76
2022/10/20 07:03:58;;;;;;;5.97;4.82;;;;;;;;;;6114057;23;20089;-76
2022/10/20 07:06:31;;;;;;;5.70;4.25;;;;;;;;;;6112643;23;20374;-75
2022/10/20 07:08:58;;;;;;;6.53;5.18;;;;;;;;;;6114003;23;20636;-76
2022/10/20 07:11:28;;;;;;;9.07;5.22;;;;;;;;;;6113798;23;20056;-76
2022/10/20 07:13:55;;;;;;;18.48;14.35;;;;;;;;;;6113567;23;20350;-76
2022/10/20 07:16:23;;;;;;;21.75;19.25;;;;;;;;;;6087543;23;20490;-76
2022/10/20 07:18:49;;;;;;;22.85;17.02;;;;;;;;;;6112100;23;20028;-76
2022/10/20 07:21:17;;;;;;;16.33;12.32;;;;;;;;;;6113773;23;20424;-75
2022/10/20 07:23:44;;;;;;;15.65;10.88;;;;;;;;;;6113605;23;20006;-76
2022/10/20 07:26:15;;;;;;;17.38;12.20;;;;;;;;;;6111862;23;20006;-75
2022/10/20 07:28:42;;;;;;;22.80;13.20;;;;;;;;;;6113746;23;20362;-76
2022/10/20 07:31:13;;;;;;;13.50;10.98;;;;;;;;;;6114266;23;20084;-76
2022/10/20 07:33:40;;;;;;;12.40;9.50;;;;;;;;;;6114092;23;20010;-76
2022/10/20 07:36:17;;;;;;;11.73;7.45;;;;;;;;;;6113676;23;20008;-76
2022/10/20 07:38:44;;;;;;;8.45;6.78;;;;;;;;;;6111145;23;20447;-76
2022/10/20 07:41:11;;;;;;;6.53;4.68;;;;;;;;;;6113695;23;20009;-76
2022/10/20 07:43:38;;;;;;;6.28;5.28;;;;;;;;;;6113821;23;20059;-76
2022/10/20 07:46:04;;;;;;;11.63;6.22;;;;;;;;;;6113064;23;20002;-76
2022/10/20 07:48:32;;;;;;;7.05;5.95;;;;;;;;;;6113596;23;20085;-76
2022/10/20 07:51:18;;;;;;;6.90;5.10;;;;;;;;;;6113473;23;20069;-76
2022/10/20 07:53:45;;;;;;;7.22;5.32;;;;;;;;;;6092025;23;20014;-76
2022/10/20 07:56:12;;;;;;;6.57;5.25;;;;;;;;;;6113299;23;20442;-76
2022/10/20 07:58:38;;;;;;;7.68;5.72;;;;;;;;;;6113260;23;20014;-76
2022/10/20 08:01:05;;;;;;;5.93;4.10;;;;;;;;;;6113321;23;20030;-76
2022/10/20 08:03:31;;;;;;;6.57;4.38;;;;;;;;;;6086099;23;20002;-76
2022/10/20 08:05:57;;;;;;;6.55;4.65;;;;;;;;;;6112720;23;20009;-76
2022/10/20 08:08:23;;;;;;;6.95;5.63;;;;;;;;;;6113072;23;20060;-76
2022/10/20 08:10:50;;;;;;;5.95;5.32;;;;;;;;;;6113727;23;20001;-73
2022/10/20 08:13:16;;;;;;;8.82;5.40;;;;;;;;;;6112770;23;20014;-76
2022/10/20 08:15:42;;;;;;;7.82;5.30;;;;;;;;;;6112064;23;20002;-76
2022/10/20 08:18:08;;;;;;;5.57;4.30;;;;;;;;;;6114088;23;20006;-76
2022/10/20 08:20:34;;;;;;;7.80;4.72;;;;;;;;;;6112922;23;20004;-76
2022/10/20 08:23:00;;;;;;;8.63;4.85;;;;;;;;;;6113320;23;20005;-76
2022/10/20 08:25:27;;;;;;;6.95;4.78;;;;;;;;;;6087474;23;20001;-76
2022/10/20 08:27:53;;;;;;;6.43;4.82;;;;;;;;;;6112126;23;20002;-76
2022/10/20 08:30:19;;;;;;;6.32;4.75;;;;;;;;;;6113610;23;20512;-76
2022/10/20 08:32:45;;;;;;;6.40;4.68;;;;;;;;;;6112826;23;20137;-76
2022/10/20 08:35:11;;;;;;;7.03;4.20;;;;;;;;;;6112777;23;20424;-76
2022/10/20 08:37:37;;;;;;;5.90;3.85;;;;;;;;;;6111968;23;20033;-76
2022/10/20 08:40:05;;;;;;;4.95;3.72;;;;;;;;;;6111549;23;20006;-76
2022/10/20 08:42:36;;;;;;;5.82;4.15;;;;;;;;;;6112663;23;20008;-76
2022/10/20 08:45:02;;;;;;;4.43;3.15;;;;;;;;;;6113233;23;20006;-76
2022/10/20 08:47:35;;;;;;;5.45;3.83;;;;;;;;;;6112487;23;20013;-76
2022/10/20 08:50:08;;;;;;;7.05;4.07;;;;;;;;;;6108354;23;20073;-78
2022/10/20 08:52:34;;;;;;;5.53;3.90;;;;;;;;;;6111064;23;20010;-78
2022/10/20 08:55:03;;;;;;;6.03;4.18;;;;;;;;;;6111500;23;20002;-77
2022/10/20 08:57:30;;;;;;;10.55;4.45;;;;;;;;;;6111443;23;20018;-76
2022/10/20 09:00:13;;;;;;;7.68;4.53;;;;;;;;;;6111895;23;20002;-79
2022/10/20 09:02:39;;;;;;;5.70;3.83;;;;;;;;;;6109938;23;20032;-79
2022/10/20 09:05:06;;;;;;;5.63;3.70;;;;;;;;;;6111808;23;20100;-77
2022/10/20 09:07:37;;;;;;;4.90;4.05;;;;;;;;;;6086246;23;20435;-76
2022/10/20 09:10:07;;;;;;;7.10;4.90;;;;;;;;;;6111590;23;20089;-78
2022/10/20 09:12:33;;;;;;;7.03;4.47;;;;;;;;;;6111745;23;20435;-77
2022/10/20 09:15:00;;;;;;;4.82;4.00;;;;;;;;;;6084222;23;20287;-77
2022/10/20 09:17:26;;;;;;;6.07;4.28;;;;;;;;;;6111476;23;20055;-77
2022/10/20 09:19:55;;;;;;;5.65;3.60;;;;;;;;;;6111792;23;20359;-78
2022/10/20 09:22:21;;;;;;;5.82;4.03;;;;;;;;;;6111963;23;20478;-78
2022/10/20 09:24:48;;;;;;;4.85;3.80;;;;;;;;;;6110994;23;20443;-81
2022/10/20 09:27:17;;;;;;;4.55;3.42;;;;;;;;;;6111647;23;20343;-78
2022/10/20 09:29:44;;;;;;;4.45;4.03;;;;;;;;;;6109877;23;20495;-77
2022/10/20 09:32:17;;;;;;;5.80;3.70;;;;;;;;;;6111576;23;20020;-78
2022/10/20 09:34:44;;;;;;;5.57;3.50;;;;;;;;;;6111971;23;20002;-77
2022/10/20 09:37:11;;;;;;;6.80;3.92;;;;;;;;;;6110198;23;20482;-75
2022/10/20 09:39:58;;;;;;;7.13;4.22;;;;;;;;;;6112020;23;20551;-77
2022/10/20 09:42:50;;;;;;;5.10;4.45;;;;;;;;;;6111888;23;20368;-76
2022/10/20 09:45:27;;;;;;;6.85;4.80;;;;;;;;;;6107687;23;20016;-77
2022/10/20 09:47:55;;;;;;;5.45;3.97;;;;;;;;;;6111277;23;20004;-77
2022/10/20 09:50:27;;;;;;;6.07;3.75;;;;;;;;;;6112093;23;20443;-75
2022/10/20 09:52:54;;;;;;;4.32;3.92;;;;;;;;;;6111175;23;20014;-77
2022/10/20 09:55:22;;;;;;;5.35;4.10;;;;;;;;;;6111786;23;20002;-79
2022/10/20 09:57:49;;;;;;;4.25;3.83;;;;;;;;;;6111113;23;20160;-77
2022/10/20 10:00:41;;;;;;;4.97;3.97;;;;;;;;;;6110087;23;20029;-78
2022/10/20 10:03:18;;;;;;;5.43;4.00;;;;;;;;;;6106576;23;20040;-77
2022/10/20 10:05:45;;;;;;;5.03;4.32;;;;;;;;;;6111800;23;20009;-78
2022/10/20 10:08:14;;;;;;;7.50;5.10;;;;;;;;;;6111594;23;20503;-78
2022/10/20 10:10:40;;;;;;;6.50;4.97;;;;;;;;;;6111728;23;19998;-77
2022/10/20 10:13:20;;;;;;;5.03;3.90;;;;;;;;;;6109976;23;20509;-78
2022/10/20 10:15:46;;;;;;;4.38;3.97;;;;;;;;;;6111920;23;20571;-77
2022/10/20 10:18:14;;;;;;;5.15;3.95;;;;;;;;;;6111483;23;20113;-76
2022/10/20 10:20:40;;;;;;;5.32;4.00;;;;;;;;;;6112189;23;20014;-77
2022/10/20 10:23:27;;;;;;;6.47;4.20;;;;;;;;;;6111424;23;20412;-78
2022/10/20 10:25:53;;;;;;;8.07;4.72;;;;;;;;;;6113028;23;19998;-76
2022/10/20 10:28:25;;;;;;;6.63;4.03;;;;;;;;;;6114232;23;20081;-77
2022/10/20 10:31:12;;;;;;;5.35;4.40;;;;;;;;;;6086532;23;20006;-75
2022/10/20 10:33:38;;;;;;;8.07;4.47;;;;;;;;;;6093857;23;20140;-77
2022/10/20 10:36:14;;;;;;;7.38;5.38;;;;;;;;;;6113220;23;20114;-76
2022/10/20 10:38:40;;;;;;;6.00;4.35;;;;;;;;;;6112288;23;20357;-77
2022/10/20 10:41:12;;;;;;;5.28;4.50;;;;;;;;;;6111612;23;20010;-79
2022/10/20 10:43:59;;;;;;;6.00;4.78;;;;;;;;;;6113334;23;20006;-76
2022/10/20 10:46:35;;;;;;;5.97;4.53;;;;;;;;;;6112995;23;20009;-79
2022/10/20 10:49:01;;;;;;;5.30;4.80;;;;;;;;;;6113140;23;20206;-76
2022/10/20 10:51:30;;;;;;;7.40;4.70;;;;;;;;;;6113334;23;20052;-76
2022/10/20 10:54:06;;;;;;;6.57;5.50;;;;;;;;;;6114140;23;20033;-77
2022/10/20 10:56:39;;;;;;;6.72;5.15;;;;;;;;;;6113330;23;20013;-76
2022/10/20 10:59:10;;;;;;;6.97;5.68;;;;;;;;;;6112429;23;20911;-77
2022/10/20 11:01:40;;;;;;;8.30;5.57;;;;;;;;;;6113078;23;20013;-77
2022/10/20 11:04:21;;;;;;;5.97;5.35;;;;;;;;;;6112709;23;20048;-79
2022/10/20 11:06:53;;;;;;;6.97;6.20;;;;;;;;;;6111122;23;20005;-76
2022/10/20 11:09:31;;;;;;;7.15;5.03;;;;;;;;;;6113223;23;20134;-78
2022/10/20 11:12:20;;;;;;;5.32;4.10;;;;;;;;;;6112752;23;20006;-77
2022/10/20 11:14:57;;;;;;;8.68;4.10;;;;;;;;;;6112803;23;20081;-78
2022/10/20 11:17:41;;;;;;;7.80;4.43;;;;;;;;;;6111209;23;20002;-76
2022/10/20 11:20:07;;;;;;;5.15;4.05;;;;;;;;;;6112300;23;20016;-78
2022/10/20 11:22:33;;;;;;;5.68;3.42;;;;;;;;;;6113363;23;20479;-78
2022/10/20 11:25:09;;;;;;;7.13;4.05;;;;;;;;;;6113073;23;20041;-79
2022/10/20 11:27:37;;;;;;;4.55;3.50;;;;;;;;;;6113408;23;20932;-77
2022/10/20 11:30:17;;;;;;;10.30;4.13;;;;;;;;;;6112623;23;19998;-75
2022/10/20 11:32:49;;;;;;;5.22;3.67;;;;;;;;;;6110504;23;20093;-76
2022/10/20 11:35:21;;;;;;;6.95;4.38;;;;;;;;;;6113410;23;20002;-78
2022/10/20 11:37:47;;;;;;;5.88;3.70;;;;;;;;;;6087055;23;20093;-79
2022/10/20 11:40:24;;;;;;;5.68;4.65;;;;;;;;;;6113426;23;20089;-78
2022/10/20 11:43:12;;;;;;;4.50;4.10;;;;;;;;;;6112646;23;20010;-79
2022/10/20 11:45:44;;;;;;;5.22;3.47;;;;;;;;;;6086979;23;20021;-77
2022/10/20 11:48:23;;;;;;;7.00;3.90;;;;;;;;;;6110955;23;20073;-78
2022/10/20 11:50:52;;;;;;;5.97;4.30;;;;;;;;;;6113087;23;20010;-78
2022/10/20 11:53:24;;;;;;;6.07;4.10;;;;;;;;;;6112801;23;20024;-78
2022/10/20 11:55:51;;;;;;;5.75;4.40;;;;;;;;;;6110742;23;20454;-78
2022/10/20 11:58:23;;;;;;;5.78;3.78;;;;;;;;;;6110699;23;20037;-79
2022/10/20 12:01:08;;;;;;;6.47;4.57;;;;;;;;;;6112640;23;20190;-78
2022/10/20 12:03:58;;;;;;;4.80;4.30;;;;;;;;;;6087289;23;20317;-79
2022/10/20 12:06:27;;;;;;;4.63;4.05;;;;;;;;;;6111011;23;20006;-79
2022/10/20 12:09:05;;;;;;;6.03;4.20;;;;;;;;;;6112789;23;20012;-78
2022/10/20 12:11:32;;;;;;;5.25;3.70;;;;;;;;;;6112225;23;20486;-77
2022/10/20 12:13:58;;;;;;;5.45;3.90;;;;;;;;;;6112512;23;20022;-79
2022/10/20 12:16:59;;;;;;;6.70;4.30;;;;;;;;;;6113003;23;20002;-78
2022/10/20 12:19:27;;;;;;;5.03;3.75;;;;;;;;;;5992239;23;20019;-79
2022/10/20 12:21:58;;;;;;;4.82;3.78;;;;;;;;;;6063950;23;20071;-78
2022/10/20 12:24:33;;;;;;;6.28;3.95;;;;;;;;;;6112843;23;20041;-80
2022/10/20 12:27:08;;;;;;;4.72;3.83;;;;;;;;;;6112361;23;19998;-79
2022/10/20 12:29:35;;;;;;;5.50;4.10;;;;;;;;;;6113298;23;20005;-78
2022/10/20 12:32:20;;;;;;;5.18;3.92;;;;;;;;;;6110841;23;20065;-78
2022/10/20 12:34:47;;;;;;;4.32;3.92;;;;;;;;;;6112376;23;20002;-78
2022/10/20 12:37:19;;;;;;;4.90;3.70;;;;;;;;;;6112028;23;20029;-78
2022/10/20 12:39:46;;;;;;;5.70;3.70;;;;;;;;;;6086495;23;20036;-79
2022/10/20 12:42:18;;;;;;;5.88;3.80;;;;;;;;;;6112889;23;20089;-80
2022/10/20 12:44:45;;;;;;;4.68;3.63;;;;;;;;;;6110577;23;20326;-79
2022/10/20 12:47:21;;;;;;;6.20;4.65;;;;;;;;;;6086367;23;20097;-78
2022/10/20 12:49:59;;;;;;;3.83;3.53;;;;;;;;;;6112174;23;20082;-78
2022/10/20 12:52:33;;;;;;;5.05;3.80;;;;;;;;;;6112442;23;20010;-78
2022/10/20 12:55:06;;;;;;;7.00;4.47;;;;;;;;;;6112217;23;19998;-78
2022/10/20 12:57:43;;;;;;;5.45;3.75;;;;;;;;;;6109850;23;20017;-79
2022/10/20 13:00:19;;;;;;;5.00;3.65;;;;;;;;;;6112391;23;19998;-76
2022/10/20 13:02:48;;;;;;;4.28;3.83;;;;;;;;;;6112765;23;20006;-77
2022/10/20 13:05:14;;;;;;;4.55;3.95;;;;;;;;;;6112655;23;20009;-77
2022/10/20 13:07:46;;;;;;;4.93;4.18;;;;;;;;;;6112101;23;20006;-76
2022/10/20 13:10:21;;;;;;;5.63;3.78;;;;;;;;;;6110346;23;20010;-76
2022/10/20 13:12:48;;;;;;;5.32;3.88;;;;;;;;;;6112029;23;20097;-77
2022/10/20 13:15:17;;;;;;;4.88;3.63;;;;;;;;;;6112381;23;20009;-75
2022/10/20 13:17:55;;;;;;;7.20;4.07;;;;;;;;;;6110214;23;20002;-77
2022/10/20 13:20:24;;;;;;;6.38;4.05;;;;;;;;;;6086650;23;20293;-76
2022/10/20 13:22:52;;;;;;;5.82;3.83;;;;;;;;;;6111841;23;20006;-75
2022/10/20 13:25:37;;;;;;;4.32;3.88;;;;;;;;;;6111709;23;20076;-75
2022/10/20 13:28:17;;;;;;;5.55;3.88;;;;;;;;;;6112633;23;20010;-76
2022/10/20 13:30:52;;;;;;;4.55;3.35;;;;;;;;;;6110660;23;20451;-76
2022/10/20 13:33:22;;;;;;;7.57;4.35;;;;;;;;;;6112084;23;20016;-76
2022/10/20 13:36:07;;;;;;;4.97;3.78;;;;;;;;;;6112581;23;19998;-76
2022/10/20 13:38:36;;;;;;;4.53;3.92;;;;;;;;;;6110846;23;20001;-76
2022/10/20 13:41:10;;;;;;;6.22;4.10;;;;;;;;;;6112316;23;20562;-76
2022/10/20 13:43:42;;;;;;;4.38;3.33;;;;;;;;;;6110665;23;20006;-76
2022/10/20 13:46:11;;;;;;;4.45;3.63;;;;;;;;;;6112355;23;20009;-76
2022/10/20 13:49:06;;;;;;;4.05;3.65;;;;;;;;;;6112489;23;20085;-76
2022/10/20 13:51:33;;;;;;;5.18;3.58;;;;;;;;;;6112130;23;20084;-75
2022/10/20 13:54:04;;;;;;;4.75;3.88;;;;;;;;;;6111178;23;20016;-74
2022/10/20 13:56:35;;;;;;;4.57;3.90;;;;;;;;;;6114771;23;20073;-74
2022/10/20 13:59:03;;;;;;;5.18;3.97;;;;;;;;;;6114038;23;20065;-74
2022/10/20 14:01:30;;;;;;;6.28;4.47;;;;;;;;;;6114143;23;20006;-74
2022/10/20 14:03:57;;;;;;;5.32;4.30;;;;;;;;;;6113434;23;20004;-74
2022/10/20 14:06:35;;;;;;;5.10;3.55;;;;;;;;;;6113756;23;20479;-74
2022/10/20 14:09:14;;;;;;;5.18;4.05;;;;;;;;;;6113817;23;20026;-74
2022/10/20 14:11:41;;;;;;;5.90;3.90;;;;;;;;;;6113546;23;20016;-75
2022/10/20 14:14:10;;;;;;;4.47;4.07;;;;;;;;;;6112268;23;20006;-74
2022/10/20 14:16:38;;;;;;;4.65;3.63;;;;;;;;;;6113917;23;20593;-75
2022/10/20 14:19:10;;;;;;;5.18;3.60;;;;;;;;;;6113325;23;20006;-75
2022/10/20 14:21:43;;;;;;;5.22;4.00;;;;;;;;;;6113748;23;19998;-74
2022/10/20 14:24:14;;;;;;;5.05;3.42;;;;;;;;;;6113294;23;19986;-74
2022/10/20 14:26:42;;;;;;;5.75;3.95;;;;;;;;;;6113860;23;20069;-75
2022/10/20 14:29:11;;;;;;;3.95;3.30;;;;;;;;;;6112836;23;20005;-74
2022/10/20 14:31:37;;;;;;;4.47;3.67;;;;;;;;;;6113370;23;20005;-74
2022/10/20 14:34:04;;;;;;;6.20;3.47;;;;;;;;;;6113600;23;20013;-73
2022/10/20 14:36:30;;;;;;;5.45;3.95;;;;;;;;;;6086126;23;20030;-74
2022/10/20 14:38:59;;;;;;;5.07;3.45;;;;;;;;;;6087396;23;20732;-74
2022/10/20 14:41:27;;;;;;;4.68;3.50;;;;;;;;;;6113956;23;20110;-74
2022/10/20 14:43:57;;;;;;;6.25;3.65;;;;;;;;;;6113985;23;20012;-74
2022/10/20 14:46:28;;;;;;;9.20;3.90;;;;;;;;;;6112438;23;20005;-74
2022/10/20 14:48:54;;;;;;;4.00;3.43;;;;;;;;;;6113022;23;20006;-76
2022/10/20 14:51:43;;;;;;;6.90;3.90;;;;;;;;;;6113356;23;20447;-74
2022/10/20 14:54:18;;;;;;;5.53;3.80;;;;;;;;;;6113697;23;20010;-75